createdAt,value
2023-04-09T00:00:30.885Z,45.6062
2023-04-09T00:01:32.527Z,45.3200
2023-04-09T00:02:34.134Z,45.4931
2023-04-09T00:03:35.975Z,45.4846
2023-04-09T00:04:37.512Z,45.8377
2023-04-09T00:05:39.045Z,45.7031
2023-04-09T00:06:40.729Z,45.5346
2023-04-09T00:07:44.498Z,45.1200
2023-04-09T00:08:44.001Z,44.8131
2023-04-09T00:09:45.795Z,44.5700
2023-04-09T00:10:47.419Z,44.9000
2023-04-09T00:11:49.014Z,45.1685
2023-04-09T00:12:50.658Z,45.0808
2023-04-09T00:13:52.355Z,45.0885
2023-04-09T00:14:53.949Z,44.9031
2023-04-09T00:15:55.639Z,44.7792
2023-04-09T00:16:57.327Z,44.7131
2023-04-09T00:17:58.941Z,44.6208
2023-04-09T00:19:00.566Z,44.4985
2023-04-09T00:20:02.230Z,44.5292
2023-04-09T00:21:03.874Z,44.5569
2023-04-09T00:22:05.538Z,44.5292
2023-04-09T00:23:07.217Z,44.4854
2023-04-09T00:24:08.741Z,44.6000
2023-04-09T00:25:10.451Z,44.7269
2023-04-09T00:26:12.178Z,44.7292
2023-04-09T00:27:13.870Z,44.7708
2023-04-09T00:28:15.471Z,44.6254
2023-04-09T00:29:17.208Z,44.6669
2023-04-09T00:30:18.800Z,44.5446
2023-04-09T00:31:20.877Z,44.5638
2023-04-09T00:32:22.075Z,44.6385
2023-04-09T00:33:23.652Z,44.4423
2023-04-09T00:34:25.336Z,44.1762
2023-04-09T00:35:26.974Z,44.1923
2023-04-09T00:36:28.728Z,44.1954
2023-04-09T00:37:30.315Z,44.0900
2023-04-09T00:38:31.999Z,44.1515
2023-04-09T00:39:33.621Z,44.1138
2023-04-09T00:40:35.255Z,43.8362
2023-04-09T00:41:37.009Z,43.8169
2023-04-09T00:42:38.590Z,43.9262
2023-04-09T00:43:40.274Z,43.7562
2023-04-09T00:44:41.810Z,43.6646
2023-04-09T00:45:43.536Z,43.5885
2023-04-09T00:46:45.106Z,43.6031
2023-04-09T00:47:47.383Z,43.7600
2023-04-09T00:48:48.510Z,43.6192
2023-04-09T00:49:50.179Z,43.6862
2023-04-09T00:50:51.748Z,43.5085
2023-04-09T00:51:53.387Z,43.4738
2023-04-09T00:52:55.154Z,43.3892
2023-04-09T00:53:56.788Z,43.4392
2023-04-09T00:54:58.439Z,43.2577
2023-04-09T00:56:00.031Z,43.1992
2023-04-09T00:57:01.678Z,43.4646
2023-04-09T00:58:03.432Z,43.4938
2023-04-09T00:59:05.370Z,43.3477
2023-04-09T01:00:06.718Z,43.0669
2023-04-09T01:01:08.398Z,42.9238
2023-04-09T01:02:10.922Z,42.8992
2023-04-09T01:03:12.029Z,45.4100
2023-04-09T01:04:13.346Z,47.7231
2023-04-09T01:05:14.928Z,47.8523
2023-04-09T01:06:16.538Z,47.2992
2023-04-09T01:07:18.281Z,46.7592
2023-04-09T01:08:20.103Z,46.1815
2023-04-09T01:09:21.565Z,45.8700
2023-04-09T01:10:23.206Z,46.0962
2023-04-09T01:11:24.982Z,46.5431
2023-04-09T01:12:26.511Z,46.5992
2023-04-09T01:13:28.223Z,46.1300
2023-04-09T01:14:29.940Z,45.8308
2023-04-09T01:15:31.524Z,45.3054
2023-04-09T01:16:33.136Z,45.2377
2023-04-09T01:17:34.892Z,45.3692
2023-04-09T01:18:36.505Z,45.9662
2023-04-09T01:19:38.124Z,45.7992
2023-04-09T01:20:39.828Z,45.7215
2023-04-09T01:21:41.423Z,45.1777
2023-04-09T01:22:43.078Z,44.7400
2023-04-09T01:23:44.791Z,44.5431
2023-04-09T01:24:46.398Z,45.1115
2023-04-09T01:25:48.068Z,45.1685
2023-04-09T01:26:49.701Z,44.9400
2023-04-09T01:27:51.345Z,44.5208
2023-04-09T01:28:53.459Z,44.1338
2023-04-09T01:29:54.675Z,43.9554
2023-04-09T01:30:56.455Z,44.0646
2023-04-09T01:31:57.966Z,44.3731
2023-04-09T01:33:00.036Z,44.2262
2023-04-09T01:34:01.414Z,44.1577
2023-04-09T01:35:02.905Z,43.7877
2023-04-09T01:36:04.719Z,43.4277
2023-04-09T01:37:06.294Z,43.3631
2023-04-09T01:38:07.898Z,43.7485
2023-04-09T01:39:09.611Z,44.1277
2023-04-09T01:40:11.340Z,44.1123
2023-04-09T01:41:12.763Z,43.5985
2023-04-09T01:42:14.450Z,43.2538
2023-04-09T01:43:16.089Z,43.1615
2023-04-09T01:44:17.733Z,43.2338
2023-04-09T01:45:19.460Z,43.4838
2023-04-09T01:46:21.134Z,43.4492
2023-04-09T01:47:22.701Z,43.4846
2023-04-09T01:48:24.355Z,43.0785
2023-04-09T01:49:26.155Z,42.8038
2023-04-09T01:50:27.827Z,43.0092
2023-04-09T01:51:29.362Z,43.5046
2023-04-09T01:52:31.778Z,43.5631
2023-04-09T01:53:32.756Z,43.6192
2023-04-09T01:54:34.509Z,43.2315
2023-04-09T01:55:36.046Z,42.6808
2023-04-09T01:56:37.760Z,42.5785
2023-04-09T01:57:39.326Z,42.6062
2023-04-09T01:58:41.040Z,43.3446
2023-04-09T01:59:42.646Z,43.2662
2023-04-09T02:00:45.286Z,43.2362
2023-04-09T02:01:46.966Z,42.8731
2023-04-09T02:02:47.749Z,42.4523
2023-04-09T02:03:49.389Z,42.4546
2023-04-09T02:04:51.165Z,42.7392
2023-04-09T02:05:52.939Z,43.0146
2023-04-09T02:06:54.257Z,42.9662
2023-04-09T02:07:55.895Z,42.8123
2023-04-09T02:08:57.613Z,42.5415
2023-04-09T02:09:59.283Z,47.4523
2023-04-09T02:11:00.840Z,48.5223
2023-04-09T02:12:02.542Z,48.5215
2023-04-09T02:13:04.157Z,47.7969
2023-04-09T02:14:05.990Z,47.1115
2023-04-09T02:15:07.595Z,46.2508
2023-04-09T02:16:09.178Z,46.1000
2023-04-09T02:17:10.796Z,45.9638
2023-04-09T02:18:12.451Z,46.2554
2023-04-09T02:19:14.076Z,46.6623
2023-04-09T02:20:15.820Z,46.3123
2023-04-09T02:21:17.353Z,45.9477
2023-04-09T02:22:19.019Z,45.2738
2023-04-09T02:23:20.728Z,45.1031
2023-04-09T02:24:22.447Z,45.2008
2023-04-09T02:25:24.078Z,45.6408
2023-04-09T02:26:25.642Z,45.7092
2023-04-09T02:27:27.406Z,45.5285
2023-04-09T02:28:29.049Z,45.1954
2023-04-09T02:29:30.649Z,44.5031
2023-04-09T02:30:32.343Z,44.4269
2023-04-09T02:31:34.023Z,44.3846
2023-04-09T02:32:35.744Z,45.0038
2023-04-09T02:33:37.353Z,44.9254
2023-04-09T02:34:39.059Z,44.6792
2023-04-09T02:35:40.670Z,44.1708
2023-04-09T02:36:42.334Z,43.8354
2023-04-09T02:37:44.014Z,43.8308
2023-04-09T02:38:45.604Z,44.1338
2023-04-09T02:39:47.406Z,44.3569
2023-04-09T02:40:48.948Z,44.1469
2023-04-09T02:41:50.642Z,43.9685
2023-04-09T02:42:52.172Z,43.4738
2023-04-09T02:43:53.910Z,43.1738
2023-04-09T02:44:55.577Z,43.2731
2023-04-09T02:45:57.459Z,43.8554
2023-04-09T02:46:58.780Z,43.9469
2023-04-09T02:48:00.501Z,43.9769
2023-04-09T02:49:02.858Z,43.5808
2023-04-09T02:50:03.897Z,43.0808
2023-04-09T02:51:05.597Z,43.0038
2023-04-09T02:52:07.114Z,43.2131
2023-04-09T02:53:08.894Z,43.6146
2023-04-09T02:54:10.412Z,42.8369
2023-04-09T02:55:12.069Z,41.8515
2023-04-09T02:56:13.815Z,41.0500
2023-04-09T02:57:15.261Z,40.4685
2023-04-09T02:58:16.992Z,39.9154
2023-04-09T02:59:18.727Z,39.8562
2023-04-09T03:00:20.348Z,39.9785
2023-04-09T03:01:22.135Z,39.9692
2023-04-09T03:02:23.818Z,40.0669
2023-04-09T03:03:26.040Z,40.1469
2023-04-09T03:04:26.980Z,40.0246
2023-04-09T03:05:28.520Z,39.9323
2023-04-09T03:06:30.294Z,39.9800
2023-04-09T03:07:31.856Z,39.9538
2023-04-09T03:08:33.504Z,39.7615
2023-04-09T03:09:35.157Z,39.6777
2023-04-09T03:10:36.820Z,39.6469
2023-04-09T03:11:38.536Z,39.6754
2023-04-09T03:12:40.128Z,39.5969
2023-04-09T03:13:41.820Z,39.4669
2023-04-09T03:14:43.483Z,39.3231
2023-04-09T03:15:45.125Z,39.3962
2023-04-09T03:16:46.781Z,39.3792
2023-04-09T03:17:48.433Z,39.3431
2023-04-09T03:18:50.256Z,39.2454
2023-04-09T03:19:51.686Z,39.2331
2023-04-09T03:20:53.341Z,39.1492
2023-04-09T03:21:55.031Z,39.0438
2023-04-09T03:22:56.638Z,38.9854
2023-04-09T03:23:58.321Z,38.9962
2023-04-09T03:24:59.983Z,38.9485
2023-04-09T03:26:01.616Z,38.8800
2023-04-09T03:27:03.362Z,38.8562
2023-04-09T03:28:04.876Z,38.8354
2023-04-09T03:29:06.616Z,38.8654
2023-04-09T03:30:08.235Z,38.8662
2023-04-09T03:31:09.964Z,38.8238
2023-04-09T03:32:11.545Z,38.8423
2023-04-09T03:33:13.187Z,38.7631
2023-04-09T03:34:14.836Z,38.5762
2023-04-09T03:35:16.464Z,38.6115
2023-04-09T03:36:18.091Z,38.6715
2023-04-09T03:37:19.818Z,38.6831
2023-04-09T03:38:21.408Z,38.6415
2023-04-09T03:39:23.121Z,38.6023
2023-04-09T03:40:24.740Z,38.5000
2023-04-09T03:41:26.469Z,38.3977
2023-04-09T03:42:27.998Z,38.4400
2023-04-09T03:43:29.703Z,38.4092
2023-04-09T03:44:31.954Z,38.3846
2023-04-09T03:45:33.017Z,38.4162
2023-04-09T03:46:34.750Z,38.4169
2023-04-09T03:47:36.354Z,38.4054
2023-04-09T03:48:38.009Z,38.3400
2023-04-09T03:49:39.614Z,38.3408
2023-04-09T03:50:41.252Z,38.2846
2023-04-09T03:51:42.937Z,38.2485
2023-04-09T03:52:44.651Z,38.2515
2023-04-09T03:53:46.335Z,38.2846
2023-04-09T03:54:47.962Z,38.1754
2023-04-09T03:55:49.626Z,38.1031
2023-04-09T03:56:52.068Z,38.1592
2023-04-09T03:57:52.934Z,38.1454
2023-04-09T03:58:54.881Z,38.1777
2023-04-09T03:59:56.248Z,38.1808
2023-04-09T04:00:57.769Z,38.0785
2023-04-09T04:01:59.549Z,38.1038
2023-04-09T04:03:01.372Z,38.1285
2023-04-09T04:04:02.941Z,38.2423
2023-04-09T04:05:04.493Z,38.1785
2023-04-09T04:06:06.160Z,38.2100
2023-04-09T04:07:07.804Z,38.2315
2023-04-09T04:08:09.423Z,38.1692
2023-04-09T04:09:11.023Z,38.2354
2023-04-09T04:10:12.794Z,38.1885
2023-04-09T04:11:14.374Z,38.1631
2023-04-09T04:12:16.020Z,38.1931
2023-04-09T04:13:17.707Z,38.1215
2023-04-09T04:14:19.355Z,38.1454
2023-04-09T04:15:21.044Z,38.2323
2023-04-09T04:16:22.697Z,38.2646
2023-04-09T04:17:24.341Z,38.2508
2023-04-09T04:18:25.957Z,38.2531
2023-04-09T04:19:27.614Z,38.3146
2023-04-09T04:20:29.244Z,38.2823
2023-04-09T04:21:30.919Z,38.2608
2023-04-09T04:22:32.602Z,38.2600
2023-04-09T04:23:34.250Z,38.1985
2023-04-09T04:24:35.901Z,38.1592
2023-04-09T04:25:37.541Z,38.1754
2023-04-09T04:26:39.229Z,38.2638
2023-04-09T04:27:40.893Z,38.1762
2023-04-09T04:28:42.556Z,38.1169
2023-04-09T04:29:44.141Z,38.1269
2023-04-09T04:30:45.867Z,38.1062
2023-04-09T04:31:47.497Z,38.1269
2023-04-09T04:32:49.097Z,38.1246
2023-04-09T04:33:50.782Z,38.0808
2023-04-09T04:34:52.425Z,38.1808
2023-04-09T04:35:54.144Z,38.0715
2023-04-09T04:36:55.633Z,37.9685
2023-04-09T04:37:57.399Z,38.0338
2023-04-09T04:38:59.067Z,38.0092
2023-04-09T04:40:00.666Z,38.0669
2023-04-09T04:41:02.306Z,38.0869
2023-04-09T04:42:03.947Z,38.0485
2023-04-09T04:43:05.665Z,38.0369
2023-04-09T04:44:07.311Z,38.0015
2023-04-09T04:45:09.052Z,38.0946
2023-04-09T04:46:10.622Z,38.1254
2023-04-09T04:47:12.244Z,38.1308
2023-04-09T04:48:13.917Z,38.2938
2023-04-09T04:49:16.324Z,38.4592
2023-04-09T04:50:17.256Z,38.3838
2023-04-09T04:51:18.841Z,38.5123
2023-04-09T04:52:20.475Z,38.7262
2023-04-09T04:53:22.139Z,39.0623
2023-04-09T04:54:23.842Z,38.8892
2023-04-09T04:55:26.505Z,38.6977
2023-04-09T04:56:27.114Z,38.5900
2023-04-09T04:57:28.939Z,38.7892
2023-04-09T04:58:30.423Z,39.0123
2023-04-09T04:59:32.200Z,39.0077
2023-04-09T05:00:33.734Z,38.9031
2023-04-09T05:01:35.418Z,38.7938
2023-04-09T05:02:37.186Z,38.6031
2023-04-09T05:03:38.779Z,38.5315
2023-04-09T05:04:40.392Z,38.4208
2023-04-09T05:05:42.002Z,38.4338
2023-04-09T05:06:43.662Z,38.5046
2023-04-09T05:07:45.306Z,38.6346
2023-04-09T05:08:47.009Z,38.6246
2023-04-09T05:09:48.626Z,38.6777
2023-04-09T05:10:50.220Z,38.7562
2023-04-09T05:11:51.930Z,38.7177
2023-04-09T05:12:53.611Z,38.6931
2023-04-09T05:13:55.186Z,38.8038
2023-04-09T05:14:56.986Z,38.8377
2023-04-09T05:15:58.630Z,38.8708
2023-04-09T05:17:00.216Z,39.0277
2023-04-09T05:18:01.925Z,39.0238
2023-04-09T05:19:03.528Z,39.0200
2023-04-09T05:20:05.949Z,38.9992
2023-04-09T05:21:07.457Z,39.0515
2023-04-09T05:22:08.464Z,38.9669
2023-04-09T05:23:10.082Z,39.1208
2023-04-09T05:24:11.737Z,39.1146
2023-04-09T05:25:13.410Z,39.2038
2023-04-09T05:26:14.995Z,39.1100
2023-04-09T05:27:16.722Z,38.9531
2023-04-09T05:28:18.434Z,38.8531
2023-04-09T05:29:20.058Z,38.9462
2023-04-09T05:30:21.724Z,38.9908
2023-04-09T05:31:23.257Z,39.1077
2023-04-09T05:32:25.221Z,39.1885
2023-04-09T05:33:26.679Z,39.3238
2023-04-09T05:34:28.265Z,39.3500
2023-04-09T05:35:29.983Z,39.3123
2023-04-09T05:36:31.577Z,39.3238
2023-04-09T05:37:33.499Z,39.2777
2023-04-09T05:38:34.965Z,39.2262
2023-04-09T05:39:37.502Z,39.2277
2023-04-09T05:40:38.298Z,39.0977
2023-04-09T05:41:39.857Z,39.3654
2023-04-09T05:42:41.537Z,39.5908
2023-04-09T05:43:43.439Z,39.7762
2023-04-09T05:44:44.857Z,39.8608
2023-04-09T05:45:46.718Z,39.7100
2023-04-09T05:46:48.189Z,39.6115
2023-04-09T05:47:49.824Z,39.5485
2023-04-09T05:48:51.595Z,39.5238
2023-04-09T05:49:53.246Z,39.7977
2023-04-09T05:50:55.841Z,39.9277
2023-04-09T05:51:56.517Z,39.6077
2023-04-09T05:52:58.191Z,39.4746
2023-04-09T05:53:59.858Z,39.4554
2023-04-09T05:55:01.492Z,39.3915
2023-04-09T05:56:03.126Z,39.5777
2023-04-09T05:57:04.811Z,39.8485
2023-04-09T05:58:06.499Z,39.5138
2023-04-09T05:59:07.995Z,39.3762
2023-04-09T06:00:10.102Z,39.2331
2023-04-09T06:01:11.356Z,39.3069
2023-04-09T06:02:13.004Z,39.5923
2023-04-09T06:03:14.777Z,39.6585
2023-04-09T06:04:16.406Z,39.4269
2023-04-09T06:05:18.581Z,39.5508
2023-04-09T06:06:19.632Z,39.1446
2023-04-09T06:07:21.241Z,39.3085
2023-04-09T06:08:22.958Z,39.5577
2023-04-09T06:09:24.612Z,39.5585
2023-04-09T06:10:26.537Z,39.4585
2023-04-09T06:11:28.009Z,39.4800
2023-04-09T06:12:29.911Z,39.2338
2023-04-09T06:13:31.202Z,39.4554
2023-04-09T06:14:32.882Z,39.7023
2023-04-09T06:15:34.555Z,39.4077
2023-04-09T06:16:36.130Z,39.3000
2023-04-09T06:17:37.804Z,39.1592
2023-04-09T06:18:39.611Z,39.0646
2023-04-09T06:19:41.170Z,39.2992
2023-04-09T06:20:42.911Z,39.6462
2023-04-09T06:21:44.297Z,39.3223
2023-04-09T06:22:45.987Z,39.1015
2023-04-09T06:23:47.642Z,39.1054
2023-04-09T06:24:49.279Z,39.1485
2023-04-09T06:25:50.972Z,39.3608
2023-04-09T06:26:52.607Z,39.7923
2023-04-09T06:27:54.212Z,39.6015
2023-04-09T06:28:55.877Z,39.3600
2023-04-09T06:29:57.550Z,39.3100
2023-04-09T06:30:59.300Z,39.2369
2023-04-09T06:32:00.786Z,39.3331
2023-04-09T06:33:02.572Z,39.6077
2023-04-09T06:34:04.103Z,39.3377
2023-04-09T06:35:05.826Z,39.1415
2023-04-09T06:36:08.484Z,39.0592
2023-04-09T06:37:09.021Z,39.0354
2023-04-09T06:38:11.362Z,39.2015
2023-04-09T06:39:13.168Z,39.5369
2023-04-09T06:40:14.071Z,39.2708
2023-04-09T06:41:15.930Z,39.0508
2023-04-09T06:42:17.373Z,38.9369
2023-04-09T06:43:18.964Z,39.0038
2023-04-09T06:44:20.670Z,39.1262
2023-04-09T06:45:22.247Z,39.4169
2023-04-09T06:46:24.033Z,39.2915
2023-04-09T06:47:25.621Z,39.0446
2023-04-09T06:48:27.930Z,38.9985
2023-04-09T06:49:28.893Z,38.8723
2023-04-09T06:50:30.557Z,39.1708
2023-04-09T06:51:32.541Z,39.0715
2023-04-09T06:52:33.937Z,39.2038
2023-04-09T06:53:35.519Z,39.0623
2023-04-09T06:54:37.991Z,39.0138
2023-04-09T06:55:38.885Z,38.8746
2023-04-09T06:56:40.962Z,39.0731
2023-04-09T06:57:42.143Z,39.2915
2023-04-09T06:58:43.837Z,39.3915
2023-04-09T06:59:45.486Z,39.0738
2023-04-09T07:00:47.089Z,38.9738
2023-04-09T07:01:49.385Z,38.8731
2023-04-09T07:02:50.673Z,39.1677
2023-04-09T07:03:52.625Z,39.3954
2023-04-09T07:04:53.729Z,39.3869
2023-04-09T07:05:55.432Z,39.0669
2023-04-09T07:06:58.150Z,38.8869
2023-04-09T07:07:58.703Z,38.7308
2023-04-09T07:09:00.461Z,38.9092
2023-04-09T07:10:02.019Z,39.2423
2023-04-09T07:11:03.669Z,39.3100
2023-04-09T07:12:05.386Z,38.9415
2023-04-09T07:13:07.495Z,38.8877
2023-04-09T07:14:08.625Z,38.8138
2023-04-09T07:15:10.318Z,38.8546
2023-04-09T07:16:11.943Z,39.1185
2023-04-09T07:17:13.634Z,39.1562
2023-04-09T07:18:15.265Z,38.9046
2023-04-09T07:19:16.777Z,38.7962
2023-04-09T07:20:18.566Z,38.6269
2023-04-09T07:21:20.165Z,38.6723
2023-04-09T07:22:22.128Z,38.9300
2023-04-09T07:23:23.577Z,38.9715
2023-04-09T07:24:25.301Z,38.9323
2023-04-09T07:25:26.778Z,38.7292
2023-04-09T07:26:28.509Z,38.6823
2023-04-09T07:27:30.101Z,38.5992
2023-04-09T07:28:31.757Z,38.9423
2023-04-09T07:29:33.586Z,38.8269
2023-04-09T07:30:35.013Z,38.6623
2023-04-09T07:31:36.619Z,38.5569
2023-04-09T07:32:38.444Z,38.5500
2023-04-09T07:33:39.957Z,38.7938
2023-04-09T07:34:41.597Z,39.2031
2023-04-09T07:35:43.216Z,38.6969
2023-04-09T07:36:44.954Z,38.4700
2023-04-09T07:37:47.003Z,38.4623
2023-04-09T07:38:48.551Z,38.4523
2023-04-09T07:39:49.888Z,38.5292
2023-04-09T07:40:51.902Z,38.3531
2023-04-09T07:41:53.148Z,38.1415
2023-04-09T07:42:54.834Z,38.1169
2023-04-09T07:43:56.565Z,38.0838
2023-04-09T07:44:58.250Z,38.2092
2023-04-09T07:45:59.853Z,38.4192
2023-04-09T07:47:01.557Z,38.0592
2023-04-09T07:48:03.510Z,37.9338
2023-04-09T07:49:04.943Z,38.1854
2023-04-09T07:50:06.351Z,37.9292
2023-04-09T07:51:08.934Z,38.1400
2023-04-09T07:52:09.666Z,38.0038
2023-04-09T07:53:12.004Z,37.7815
2023-04-09T07:54:13.094Z,37.7054
2023-04-09T07:55:15.154Z,37.7262
2023-04-09T07:56:16.223Z,37.4962
2023-04-09T07:57:17.869Z,37.7308
2023-04-09T07:58:19.613Z,37.6246
2023-04-09T07:59:21.217Z,37.3292
2023-04-09T08:00:22.856Z,37.4738
2023-04-09T08:01:24.508Z,37.4054
2023-04-09T08:02:26.364Z,37.4854
2023-04-09T08:03:28.115Z,37.7469
2023-04-09T08:04:29.487Z,37.5100
2023-04-09T08:05:31.142Z,37.2323
2023-04-09T08:06:32.737Z,37.5754
2023-04-09T08:07:34.482Z,37.2923
2023-04-09T08:08:36.103Z,37.4023
2023-04-09T08:09:37.761Z,37.3962
2023-04-09T08:10:39.368Z,37.2354
2023-04-09T08:11:40.984Z,37.0477
2023-04-09T08:12:42.706Z,37.2338
2023-04-09T08:13:44.622Z,37.1946
2023-04-09T08:14:45.940Z,37.3592
2023-04-09T08:15:47.635Z,37.4323
2023-04-09T08:16:49.372Z,37.1792
2023-04-09T08:17:51.497Z,37.1246
2023-04-09T08:18:52.932Z,37.1254
2023-04-09T08:19:54.586Z,37.0469
2023-04-09T08:20:55.839Z,37.2992
2023-04-09T08:21:57.567Z,37.2615
2023-04-09T08:22:59.207Z,36.9646
2023-04-09T08:24:00.833Z,37.1162
2023-04-09T08:25:03.537Z,36.9292
2023-04-09T08:26:04.073Z,36.8308
2023-04-09T08:27:05.748Z,37.2192
2023-04-09T08:28:07.410Z,37.0415
2023-04-09T08:29:09.109Z,36.8123
2023-04-09T08:30:10.730Z,36.7623
2023-04-09T08:31:12.448Z,36.6746
2023-04-09T08:32:14.045Z,37.0223
2023-04-09T08:33:15.641Z,36.9485
2023-04-09T08:34:17.584Z,36.9738
2023-04-09T08:35:19.058Z,36.6146
2023-04-09T08:36:21.593Z,36.7800
2023-04-09T08:37:22.419Z,36.5238
2023-04-09T08:38:24.094Z,36.8546
2023-04-09T08:39:25.792Z,36.8000
2023-04-09T08:40:27.581Z,36.7477
2023-04-09T08:41:28.944Z,36.5623
2023-04-09T08:42:30.545Z,36.4862
2023-04-09T08:43:52.531Z,36.4100
2023-04-09T08:44:33.963Z,36.8042
2023-04-09T08:45:35.604Z,36.8523
2023-04-09T08:46:37.147Z,36.5723
2023-04-09T08:47:38.934Z,36.2469
2023-04-09T08:48:40.586Z,36.2685
2023-04-09T08:49:43.034Z,36.3108
2023-04-09T08:50:43.767Z,36.7254
2023-04-09T08:51:45.450Z,36.8062
2023-04-09T08:52:47.132Z,36.5292
2023-04-09T08:53:48.723Z,36.4208
2023-04-09T08:54:50.447Z,36.3223
2023-04-09T08:55:53.152Z,36.3992
2023-04-09T08:56:53.812Z,36.6431
2023-04-09T08:57:56.094Z,36.5531
2023-04-09T08:58:57.139Z,36.0977
2023-04-09T08:59:59.121Z,36.0838
2023-04-09T09:01:00.488Z,35.9485
2023-04-09T09:02:02.087Z,36.1954
2023-04-09T09:03:03.824Z,36.3954
2023-04-09T09:04:05.380Z,36.2200
2023-04-09T09:05:07.163Z,35.8823
2023-04-09T09:06:08.646Z,35.8631
2023-04-09T09:07:10.376Z,35.9215
2023-04-09T09:08:12.607Z,36.1208
2023-04-09T09:09:13.576Z,36.2569
2023-04-09T09:10:15.714Z,36.0185
2023-04-09T09:11:16.933Z,35.6146
2023-04-09T09:12:18.654Z,35.5231
2023-04-09T09:13:20.266Z,35.7223
2023-04-09T09:14:21.947Z,36.0123
2023-04-09T09:15:23.714Z,35.9692
2023-04-09T09:16:25.187Z,35.6931
2023-04-09T09:17:26.947Z,35.4877
2023-04-09T09:18:28.521Z,35.5954
2023-04-09T09:19:30.656Z,35.7192
2023-04-09T09:20:32.326Z,35.9208
2023-04-09T09:21:33.591Z,35.9077
2023-04-09T09:22:35.148Z,35.5485
2023-04-09T09:23:36.880Z,35.3808
2023-04-09T09:24:38.494Z,35.4115
2023-04-09T09:25:40.128Z,35.5777
2023-04-09T09:26:41.850Z,35.7615
2023-04-09T09:27:43.402Z,35.6977
2023-04-09T09:28:45.050Z,35.3815
2023-04-09T09:29:46.714Z,35.3031
2023-04-09T09:30:49.526Z,35.2915
2023-04-09T09:31:50.079Z,35.5546
2023-04-09T09:32:51.765Z,35.6762
2023-04-09T09:33:53.308Z,35.5331
2023-04-09T09:34:54.874Z,35.1346
2023-04-09T09:35:56.730Z,35.1300
2023-04-09T09:36:58.268Z,35.1631
2023-04-09T09:37:59.954Z,35.4515
2023-04-09T09:39:01.586Z,35.5915
2023-04-09T09:40:03.180Z,35.4615
2023-04-09T09:41:04.878Z,35.1546
2023-04-09T09:42:06.482Z,35.1977
2023-04-09T09:43:08.205Z,35.2477
2023-04-09T09:44:09.701Z,35.5346
2023-04-09T09:45:11.454Z,35.5577
2023-04-09T09:46:13.231Z,35.2908
2023-04-09T09:47:14.836Z,35.0869
2023-04-09T09:48:16.501Z,34.9869
2023-04-09T09:49:18.112Z,35.1385
2023-04-09T09:50:19.693Z,35.3508
2023-04-09T09:51:21.394Z,35.3862
2023-04-09T09:52:23.084Z,35.0792
2023-04-09T09:53:24.665Z,35.0131
2023-04-09T09:54:26.365Z,35.0592
2023-04-09T09:55:28.144Z,35.1469
2023-04-09T09:56:29.792Z,35.4138
2023-04-09T09:57:31.421Z,35.2600
2023-04-09T09:58:33.094Z,34.9915
2023-04-09T09:59:34.674Z,34.9515
2023-04-09T10:00:36.359Z,35.0692
2023-04-09T10:01:38.148Z,35.1369
2023-04-09T10:02:39.699Z,35.2546
2023-04-09T10:03:41.372Z,35.1069
2023-04-09T10:04:43.068Z,34.7131
2023-04-09T10:05:44.583Z,34.8769
2023-04-09T10:06:46.354Z,34.9685
2023-04-09T10:07:47.885Z,35.1731
2023-04-09T10:08:49.710Z,35.2423
2023-04-09T10:09:51.214Z,34.9523
2023-04-09T10:10:52.991Z,34.6985
2023-04-09T10:11:54.670Z,34.8669
2023-04-09T10:12:56.476Z,34.7992
2023-04-09T10:13:57.795Z,35.1723
2023-04-09T10:14:59.510Z,35.2462
2023-04-09T10:16:01.144Z,35.0392
2023-04-09T10:17:02.856Z,34.7038
2023-04-09T10:18:04.475Z,34.7369
2023-04-09T10:19:06.075Z,34.9185
2023-04-09T10:20:07.722Z,35.1077
2023-04-09T10:21:09.369Z,35.0977
2023-04-09T10:22:11.052Z,34.8592
2023-04-09T10:23:13.215Z,34.5631
2023-04-09T10:24:14.278Z,34.7154
2023-04-09T10:25:15.984Z,34.7254
2023-04-09T10:26:17.716Z,34.9192
2023-04-09T10:27:19.390Z,35.0562
2023-04-09T10:28:20.963Z,34.8777
2023-04-09T10:29:22.650Z,34.5477
2023-04-09T10:30:24.220Z,34.7500
2023-04-09T10:31:25.908Z,34.7585
2023-04-09T10:32:28.604Z,34.9215
2023-04-09T10:33:29.245Z,34.8315
2023-04-09T10:34:30.939Z,34.5777
2023-04-09T10:35:32.475Z,34.2654
2023-04-09T10:36:34.165Z,34.3077
2023-04-09T10:37:35.873Z,34.5577
2023-04-09T10:38:37.471Z,34.7531
2023-04-09T10:39:39.161Z,34.7823
2023-04-09T10:40:40.735Z,34.6069
2023-04-09T10:41:42.442Z,34.2715
2023-04-09T10:42:44.143Z,34.4654
2023-04-09T10:43:45.751Z,34.4992
2023-04-09T10:44:47.415Z,34.8338
2023-04-09T10:45:49.061Z,34.7208
2023-04-09T10:46:50.803Z,34.4585
2023-04-09T10:47:52.842Z,34.1485
2023-04-09T10:48:54.131Z,34.2992
2023-04-09T10:49:55.708Z,34.1662
2023-04-09T10:50:57.322Z,34.3454
2023-04-09T10:51:59.000Z,34.4592
2023-04-09T10:53:00.735Z,34.3131
2023-04-09T10:54:02.298Z,34.0069
2023-04-09T10:55:03.913Z,34.1208
2023-04-09T10:56:05.562Z,34.2162
2023-04-09T10:57:07.307Z,34.3638
2023-04-09T10:58:11.296Z,34.4577
2023-04-09T10:59:10.595Z,34.1900
2023-04-09T11:00:12.541Z,33.8931
2023-04-09T11:01:13.851Z,33.9123
2023-04-09T11:02:15.564Z,34.1069
2023-04-09T11:03:17.370Z,34.2585
2023-04-09T11:04:18.648Z,34.4638
2023-04-09T11:05:20.320Z,34.1369
2023-04-09T11:06:21.984Z,33.7823
2023-04-09T11:07:23.692Z,34.0808
2023-04-09T11:08:25.313Z,34.0869
2023-04-09T11:09:26.910Z,34.3323
2023-04-09T11:10:28.578Z,34.2615
2023-04-09T11:11:30.241Z,34.0031
2023-04-09T11:12:31.878Z,33.6692
2023-04-09T11:13:33.541Z,33.8362
2023-04-09T11:14:35.180Z,34.0192
2023-04-09T11:15:36.826Z,34.0538
2023-04-09T11:16:38.664Z,34.0469
2023-04-09T11:17:40.277Z,33.8123
2023-04-09T11:18:42.172Z,33.6292
2023-04-09T11:19:43.504Z,33.7700
2023-04-09T11:20:45.078Z,34.1262
2023-04-09T11:21:46.817Z,34.2154
2023-04-09T11:22:48.419Z,34.1223
2023-04-09T11:23:50.155Z,33.8538
2023-04-09T11:24:51.770Z,33.5215
2023-04-09T11:25:53.368Z,33.6254
2023-04-09T11:26:55.092Z,33.8608
2023-04-09T11:27:56.647Z,34.0408
2023-04-09T11:28:59.145Z,33.9446
2023-04-09T11:30:00.134Z,33.7138
2023-04-09T11:31:01.794Z,33.5515
2023-04-09T11:32:03.262Z,33.5808
2023-04-09T11:33:05.129Z,33.7685
2023-04-09T11:34:06.667Z,33.8000
2023-04-09T11:35:08.243Z,33.5738
2023-04-09T11:36:09.854Z,33.3177
2023-04-09T11:37:11.546Z,33.5123
2023-04-09T11:38:14.048Z,33.5569
2023-04-09T11:39:15.145Z,33.7708
2023-04-09T11:40:16.540Z,33.6946
2023-04-09T11:41:18.188Z,33.3900
2023-04-09T11:42:19.755Z,33.0685
2023-04-09T11:43:21.459Z,33.3131
2023-04-09T11:44:23.701Z,33.3562
2023-04-09T11:45:24.722Z,33.4508
2023-04-09T11:46:27.456Z,33.4369
2023-04-09T11:47:28.045Z,33.2700
2023-04-09T11:48:29.784Z,32.8869
2023-04-09T11:49:32.245Z,33.0131
2023-04-09T11:50:33.027Z,33.2269
2023-04-09T11:51:34.749Z,33.3254
2023-04-09T11:52:36.452Z,33.3031
2023-04-09T11:53:38.073Z,33.0931
2023-04-09T11:54:39.740Z,32.7354
2023-04-09T11:55:41.378Z,32.7862
2023-04-09T11:56:43.075Z,32.9977
2023-04-09T11:57:44.681Z,33.0038
2023-04-09T11:58:46.327Z,32.9854
2023-04-09T11:59:48.129Z,32.7415
2023-04-09T12:00:49.676Z,32.3708
2023-04-09T12:01:51.515Z,32.3169
2023-04-09T12:02:53.301Z,32.5169
2023-04-09T12:03:54.675Z,32.4415
2023-04-09T12:04:56.620Z,32.4546
2023-04-09T12:05:57.764Z,32.3377
2023-04-09T12:06:59.482Z,32.1454
2023-04-09T12:08:01.067Z,32.2938
2023-04-09T12:09:02.831Z,32.3262
2023-04-09T12:10:04.560Z,32.5485
2023-04-09T12:11:06.076Z,32.4869
2023-04-09T12:12:08.680Z,32.3492
2023-04-09T12:13:09.370Z,32.0438
2023-04-09T12:14:11.033Z,32.0292
2023-04-09T12:15:12.806Z,32.0054
2023-04-09T12:16:14.577Z,32.2554
2023-04-09T12:17:15.963Z,32.1115
2023-04-09T12:18:17.693Z,32.0946
2023-04-09T12:19:19.333Z,31.7277
2023-04-09T12:20:21.209Z,31.7331
2023-04-09T12:21:22.572Z,31.8315
2023-04-09T12:22:24.226Z,32.0746
2023-04-09T12:23:25.987Z,31.9731
2023-04-09T12:24:27.571Z,31.9092
2023-04-09T12:25:29.271Z,31.6031